sensor_id;sensor_type;location;lat;lon;timestamp;P1;durP1;ratioP1;P2;durP2;ratioP2
7076;SDS011;3579;48.956;9.154;2022-12-17T00:02:22;2.00;;;1.80;;
7076;SDS011;3579;48.956;9.154;2022-12-17T00:05:07;2.00;;;1.80;;
7076;SDS011;3579;48.956;9.154;2022-12-17T00:07:58;3.07;;;1.87;;
7076;SDS011;3579;48.956;9.154;2022-12-17T00:10:44;1.83;;;1.70;;
7076;SDS011;3579;48.956;9.154;2022-12-17T00:13:28;1.70;;;1.53;;
7076;SDS011;3579;48.956;9.154;2022-12-17T00:16:13;1.80;;;1.63;;
7076;SDS011;3579;48.956;9.154;2022-12-17T00:18:58;1.70;;;1.60;;
7076;SDS011;3579;48.956;9.154;2022-12-17T00:21:42;1.90;;;1.67;;
7076;SDS011;3579;48.956;9.154;2022-12-17T00:24:27;2.00;;;1.80;;
7076;SDS011;3579;48.956;9.154;2022-12-17T00:27:12;2.17;;;1.67;;
7076;SDS011;3579;48.956;9.154;2022-12-17T00:29:56;1.90;;;1.70;;
7076;SDS011;3579;48.956;9.154;2022-12-17T00:32:41;1.57;;;1.47;;
7076;SDS011;3579;48.956;9.154;2022-12-17T00:35:25;2.23;;;1.73;;
7076;SDS011;3579;48.956;9.154;2022-12-17T00:38:13;2.40;;;1.80;;
7076;SDS011;3579;48.956;9.154;2022-12-17T00:40:59;1.83;;;1.60;;
7076;SDS011;3579;48.956;9.154;2022-12-17T00:43:44;1.83;;;1.70;;
7076;SDS011;3579;48.956;9.154;2022-12-17T00:46:28;1.60;;;1.50;;
7076;SDS011;3579;48.956;9.154;2022-12-17T00:49:12;2.10;;;1.70;;
7076;SDS011;3579;48.956;9.154;2022-12-17T00:51:57;2.43;;;1.90;;
7076;SDS011;3579;48.956;9.154;2022-12-17T00:54:42;1.90;;;1.70;;
7076;SDS011;3579;48.956;9.154;2022-12-17T00:57:26;1.60;;;1.50;;
7076;SDS011;3579;48.956;9.154;2022-12-17T01:00:11;1.83;;;1.60;;
7076;SDS011;3579;48.956;9.154;2022-12-17T01:03:06;2.10;;;1.70;;
7076;SDS011;3579;48.956;9.154;2022-12-17T01:05:52;2.07;;;1.80;;
7076;SDS011;3579;48.956;9.154;2022-12-17T01:08:37;1.70;;;1.60;;
7076;SDS011;3579;48.956;9.154;2022-12-17T01:11:21;1.90;;;1.63;;
7076;SDS011;3579;48.956;9.154;2022-12-17T01:14:14;1.77;;;1.60;;
7076;SDS011;3579;48.956;9.154;2022-12-17T01:16:59;1.67;;;1.57;;
7076;SDS011;3579;48.956;9.154;2022-12-17T01:19:43;1.70;;;1.60;;
7076;SDS011;3579;48.956;9.154;2022-12-17T01:22:27;1.67;;;1.57;;
7076;SDS011;3579;48.956;9.154;2022-12-17T01:25:12;3.20;;;1.70;;
7076;SDS011;3579;48.956;9.154;2022-12-17T01:27:56;1.73;;;1.63;;
7076;SDS011;3579;48.956;9.154;2022-12-17T01:30:41;2.83;;;1.90;;
7076;SDS011;3579;48.956;9.154;2022-12-17T01:33:25;1.93;;;1.60;;
7076;SDS011;3579;48.956;9.154;2022-12-17T01:36:10;1.60;;;1.50;;
7076;SDS011;3579;48.956;9.154;2022-12-17T01:38:55;1.63;;;1.53;;
7076;SDS011;3579;48.956;9.154;2022-12-17T01:41:39;2.00;;;1.50;;
7076;SDS011;3579;48.956;9.154;2022-12-17T01:47:33;1.77;;;1.60;;
7076;SDS011;3579;48.956;9.154;2022-12-17T01:50:28;2.90;;;1.83;;
7076;SDS011;3579;48.956;9.154;2022-12-17T01:53:16;1.87;;;1.67;;
7076;SDS011;3579;48.956;9.154;2022-12-17T01:56:03;2.20;;;1.70;;
7076;SDS011;3579;48.956;9.154;2022-12-17T01:58:49;1.80;;;1.60;;
7076;SDS011;3579;48.956;9.154;2022-12-17T02:01:33;2.00;;;1.80;;
7076;SDS011;3579;48.956;9.154;2022-12-17T02:04:18;2.10;;;1.70;;
7076;SDS011;3579;48.956;9.154;2022-12-17T02:07:12;1.83;;;1.70;;
7076;SDS011;3579;48.956;9.154;2022-12-17T02:13:29;3.07;;;1.70;;
7076;SDS011;3579;48.956;9.154;2022-12-17T02:16:20;2.00;;;1.80;;
7076;SDS011;3579;48.956;9.154;2022-12-17T02:25:38;1.90;;;1.67;;
7076;SDS011;3579;48.956;9.154;2022-12-17T02:28:28;2.43;;;1.73;;
7076;SDS011;3579;48.956;9.154;2022-12-17T02:31:14;1.70;;;1.60;;
7076;SDS011;3579;48.956;9.154;2022-12-17T02:34:00;1.97;;;1.77;;
7076;SDS011;3579;48.956;9.154;2022-12-17T02:36:45;1.93;;;1.57;;
7076;SDS011;3579;48.956;9.154;2022-12-17T02:39:29;1.70;;;1.57;;
7076;SDS011;3579;48.956;9.154;2022-12-17T02:42:13;2.03;;;1.83;;
7076;SDS011;3579;48.956;9.154;2022-12-17T02:44:59;1.87;;;1.77;;
7076;SDS011;3579;48.956;9.154;2022-12-17T02:47:44;1.83;;;1.70;;
7076;SDS011;3579;48.956;9.154;2022-12-17T02:50:28;1.70;;;1.60;;
7076;SDS011;3579;48.956;9.154;2022-12-17T02:53:13;2.17;;;1.77;;
7076;SDS011;3579;48.956;9.154;2022-12-17T02:55:57;1.77;;;1.60;;
7076;SDS011;3579;48.956;9.154;2022-12-17T02:58:42;1.90;;;1.80;;
7076;SDS011;3579;48.956;9.154;2022-12-17T03:01:26;1.93;;;1.73;;
7076;SDS011;3579;48.956;9.154;2022-12-17T03:04:11;2.27;;;2.07;;
7076;SDS011;3579;48.956;9.154;2022-12-17T03:06:55;1.70;;;1.60;;
7076;SDS011;3579;48.956;9.154;2022-12-17T03:09:40;2.33;;;1.80;;
7076;SDS011;3579;48.956;9.154;2022-12-17T03:12:24;1.90;;;1.60;;
7076;SDS011;3579;48.956;9.154;2022-12-17T03:15:09;2.07;;;1.83;;
7076;SDS011;3579;48.956;9.154;2022-12-17T03:17:54;2.10;;;1.70;;
7076;SDS011;3579;48.956;9.154;2022-12-17T03:20:38;1.70;;;1.60;;
7076;SDS011;3579;48.956;9.154;2022-12-17T03:23:23;1.67;;;1.57;;
7076;SDS011;3579;48.956;9.154;2022-12-17T03:26:15;1.87;;;1.57;;
7076;SDS011;3579;48.956;9.154;2022-12-17T03:29:00;1.90;;;1.70;;
7076;SDS011;3579;48.956;9.154;2022-12-17T03:31:44;2.13;;;1.60;;
7076;SDS011;3579;48.956;9.154;2022-12-17T03:34:29;1.97;;;1.77;;
7076;SDS011;3579;48.956;9.154;2022-12-17T03:37:13;2.00;;;1.80;;
7076;SDS011;3579;48.956;9.154;2022-12-17T03:39:58;1.60;;;1.43;;
7076;SDS011;3579;48.956;9.154;2022-12-17T03:42:43;1.70;;;1.50;;
7076;SDS011;3579;48.956;9.154;2022-12-17T03:45:27;1.63;;;1.50;;
7076;SDS011;3579;48.956;9.154;2022-12-17T03:48:12;2.30;;;1.80;;
7076;SDS011;3579;48.956;9.154;2022-12-17T03:50:58;2.00;;;1.80;;
7076;SDS011;3579;48.956;9.154;2022-12-17T03:53:42;2.27;;;1.90;;
7076;SDS011;3579;48.956;9.154;2022-12-17T03:56:27;2.27;;;1.73;;
7076;SDS011;3579;48.956;9.154;2022-12-17T03:59:12;2.47;;;2.10;;
7076;SDS011;3579;48.956;9.154;2022-12-17T04:01:57;1.53;;;1.43;;
7076;SDS011;3579;48.956;9.154;2022-12-17T04:04:42;2.10;;;1.80;;
7076;SDS011;3579;48.956;9.154;2022-12-17T04:07:27;1.60;;;1.50;;
7076;SDS011;3579;48.956;9.154;2022-12-17T04:10:12;2.03;;;1.83;;
7076;SDS011;3579;48.956;9.154;2022-12-17T04:12:57;1.70;;;1.50;;
7076;SDS011;3579;48.956;9.154;2022-12-17T04:15:41;1.83;;;1.60;;
7076;SDS011;3579;48.956;9.154;2022-12-17T04:18:25;2.13;;;1.73;;
7076;SDS011;3579;48.956;9.154;2022-12-17T04:21:10;1.70;;;1.60;;
7076;SDS011;3579;48.956;9.154;2022-12-17T04:23:55;2.00;;;1.80;;
7076;SDS011;3579;48.956;9.154;2022-12-17T04:26:39;1.57;;;1.47;;
7076;SDS011;3579;48.956;9.154;2022-12-17T04:29:24;1.87;;;1.70;;
7076;SDS011;3579;48.956;9.154;2022-12-17T04:32:09;1.60;;;1.50;;
7076;SDS011;3579;48.956;9.154;2022-12-17T04:34:53;1.90;;;1.70;;
7076;SDS011;3579;48.956;9.154;2022-12-17T04:37:38;2.50;;;1.50;;
7076;SDS011;3579;48.956;9.154;2022-12-17T04:40:22;1.57;;;1.47;;
7076;SDS011;3579;48.956;9.154;2022-12-17T04:43:08;2.00;;;1.80;;
7076;SDS011;3579;48.956;9.154;2022-12-17T04:45:55;2.40;;;1.57;;
7076;SDS011;3579;48.956;9.154;2022-12-17T04:48:40;1.97;;;1.73;;
7076;SDS011;3579;48.956;9.154;2022-12-17T04:51:25;1.87;;;1.60;;
7076;SDS011;3579;48.956;9.154;2022-12-17T04:54:10;2.00;;;1.83;;
7076;SDS011;3579;48.956;9.154;2022-12-17T04:56:55;2.00;;;1.60;;
7076;SDS011;3579;48.956;9.154;2022-12-17T04:59:40;2.00;;;1.80;;
7076;SDS011;3579;48.956;9.154;2022-12-17T05:02:25;1.83;;;1.63;;
7076;SDS011;3579;48.956;9.154;2022-12-17T05:05:09;1.80;;;1.70;;
7076;SDS011;3579;48.956;9.154;2022-12-17T05:07:54;1.87;;;1.60;;
7076;SDS011;3579;48.956;9.154;2022-12-17T05:10:40;1.90;;;1.70;;
7076;SDS011;3579;48.956;9.154;2022-12-17T05:13:25;1.80;;;1.53;;
7076;SDS011;3579;48.956;9.154;2022-12-17T05:16:11;2.63;;;2.00;;
7076;SDS011;3579;48.956;9.154;2022-12-17T05:18:56;1.70;;;1.60;;
7076;SDS011;3579;48.956;9.154;2022-12-17T05:21:41;1.83;;;1.67;;
7076;SDS011;3579;48.956;9.154;2022-12-17T05:24:25;2.20;;;1.90;;
7076;SDS011;3579;48.956;9.154;2022-12-17T05:27:10;2.80;;;1.87;;
7076;SDS011;3579;48.956;9.154;2022-12-17T05:29:54;1.67;;;1.57;;
7076;SDS011;3579;48.956;9.154;2022-12-17T05:32:39;1.70;;;1.60;;
7076;SDS011;3579;48.956;9.154;2022-12-17T05:35:24;1.97;;;1.50;;
7076;SDS011;3579;48.956;9.154;2022-12-17T05:38:09;1.77;;;1.67;;
7076;SDS011;3579;48.956;9.154;2022-12-17T05:40:55;2.33;;;1.73;;
7076;SDS011;3579;48.956;9.154;2022-12-17T05:43:41;2.30;;;1.60;;
7076;SDS011;3579;48.956;9.154;2022-12-17T05:46:26;1.63;;;1.53;;
7076;SDS011;3579;48.956;9.154;2022-12-17T05:49:15;2.37;;;1.53;;
7076;SDS011;3579;48.956;9.154;2022-12-17T05:52:00;2.17;;;1.60;;
7076;SDS011;3579;48.956;9.154;2022-12-17T05:54:44;2.20;;;1.80;;
7076;SDS011;3579;48.956;9.154;2022-12-17T05:57:29;1.87;;;1.50;;
7076;SDS011;3579;48.956;9.154;2022-12-17T06:00:14;1.70;;;1.60;;
7076;SDS011;3579;48.956;9.154;2022-12-17T06:02:59;1.70;;;1.57;;
7076;SDS011;3579;48.956;9.154;2022-12-17T06:05:46;1.70;;;1.60;;
7076;SDS011;3579;48.956;9.154;2022-12-17T06:08:31;1.90;;;1.70;;
7076;SDS011;3579;48.956;9.154;2022-12-17T06:11:15;1.97;;;1.60;;
7076;SDS011;3579;48.956;9.154;2022-12-17T06:14:00;1.70;;;1.57;;
7076;SDS011;3579;48.956;9.154;2022-12-17T06:16:44;2.17;;;1.60;;
7076;SDS011;3579;48.956;9.154;2022-12-17T06:19:29;2.03;;;1.80;;
7076;SDS011;3579;48.956;9.154;2022-12-17T06:22:13;1.70;;;1.60;;
7076;SDS011;3579;48.956;9.154;2022-12-17T06:24:58;2.13;;;1.80;;
7076;SDS011;3579;48.956;9.154;2022-12-17T06:27:42;1.50;;;1.40;;
7076;SDS011;3579;48.956;9.154;2022-12-17T06:30:27;1.70;;;1.57;;
7076;SDS011;3579;48.956;9.154;2022-12-17T06:33:11;2.10;;;1.90;;
7076;SDS011;3579;48.956;9.154;2022-12-17T06:35:56;2.00;;;1.80;;
7076;SDS011;3579;48.956;9.154;2022-12-17T06:38:42;1.87;;;1.67;;
7076;SDS011;3579;48.956;9.154;2022-12-17T06:41:27;1.90;;;1.70;;
7076;SDS011;3579;48.956;9.154;2022-12-17T06:44:12;1.87;;;1.70;;
7076;SDS011;3579;48.956;9.154;2022-12-17T06:46:56;2.10;;;1.90;;
7076;SDS011;3579;48.956;9.154;2022-12-17T06:49:41;1.60;;;1.50;;
7076;SDS011;3579;48.956;9.154;2022-12-17T06:52:26;3.73;;;1.67;;
7076;SDS011;3579;48.956;9.154;2022-12-17T06:55:10;2.00;;;1.63;;
7076;SDS011;3579;48.956;9.154;2022-12-17T06:57:58;2.00;;;1.80;;
7076;SDS011;3579;48.956;9.154;2022-12-17T07:00:44;2.00;;;1.80;;
7076;SDS011;3579;48.956;9.154;2022-12-17T07:03:29;1.67;;;1.53;;
7076;SDS011;3579;48.956;9.154;2022-12-17T07:06:14;2.13;;;1.80;;
7076;SDS011;3579;48.956;9.154;2022-12-17T07:08:59;2.00;;;1.80;;
7076;SDS011;3579;48.956;9.154;2022-12-17T07:11:44;2.10;;;1.70;;
7076;SDS011;3579;48.956;9.154;2022-12-17T07:14:29;1.83;;;1.50;;
7076;SDS011;3579;48.956;9.154;2022-12-17T07:17:15;2.00;;;1.80;;
7076;SDS011;3579;48.956;9.154;2022-12-17T07:20:03;1.63;;;1.53;;
7076;SDS011;3579;48.956;9.154;2022-12-17T07:22:53;2.00;;;1.80;;
7076;SDS011;3579;48.956;9.154;2022-12-17T07:25:39;2.00;;;1.60;;
7076;SDS011;3579;48.956;9.154;2022-12-17T07:28:24;2.00;;;1.80;;
7076;SDS011;3579;48.956;9.154;2022-12-17T07:31:09;1.97;;;1.77;;
7076;SDS011;3579;48.956;9.154;2022-12-17T07:33:54;1.70;;;1.60;;
7076;SDS011;3579;48.956;9.154;2022-12-17T07:36:38;1.67;;;1.57;;
7076;SDS011;3579;48.956;9.154;2022-12-17T07:39:23;1.87;;;1.70;;
7076;SDS011;3579;48.956;9.154;2022-12-17T07:42:07;1.90;;;1.70;;
7076;SDS011;3579;48.956;9.154;2022-12-17T07:44:52;2.53;;;1.80;;
7076;SDS011;3579;48.956;9.154;2022-12-17T07:47:37;2.03;;;1.83;;
7076;SDS011;3579;48.956;9.154;2022-12-17T07:50:21;2.00;;;1.80;;
7076;SDS011;3579;48.956;9.154;2022-12-17T07:53:06;3.07;;;1.80;;
7076;SDS011;3579;48.956;9.154;2022-12-17T07:55:51;2.20;;;1.87;;
7076;SDS011;3579;48.956;9.154;2022-12-17T07:58:36;2.10;;;1.90;;
7076;SDS011;3579;48.956;9.154;2022-12-17T08:01:20;2.07;;;1.80;;
7076;SDS011;3579;48.956;9.154;2022-12-17T08:04:05;2.00;;;1.80;;
7076;SDS011;3579;48.956;9.154;2022-12-17T08:06:50;2.03;;;1.83;;
7076;SDS011;3579;48.956;9.154;2022-12-17T08:09:35;2.73;;;2.07;;
7076;SDS011;3579;48.956;9.154;2022-12-17T08:12:20;3.17;;;2.00;;
7076;SDS011;3579;48.956;9.154;2022-12-17T08:15:05;2.23;;;1.87;;
7076;SDS011;3579;48.956;9.154;2022-12-17T08:17:51;2.30;;;1.80;;
7076;SDS011;3579;48.956;9.154;2022-12-17T08:20:36;1.80;;;1.70;;
7076;SDS011;3579;48.956;9.154;2022-12-17T08:23:21;2.17;;;1.97;;
7076;SDS011;3579;48.956;9.154;2022-12-17T08:26:06;2.20;;;1.80;;
7076;SDS011;3579;48.956;9.154;2022-12-17T08:28:50;2.30;;;2.10;;
7076;SDS011;3579;48.956;9.154;2022-12-17T08:31:36;2.50;;;2.10;;
7076;SDS011;3579;48.956;9.154;2022-12-17T08:34:21;2.20;;;1.80;;
7076;SDS011;3579;48.956;9.154;2022-12-17T08:37:05;2.17;;;1.97;;
7076;SDS011;3579;48.956;9.154;2022-12-17T08:39:50;2.20;;;1.83;;
7076;SDS011;3579;48.956;9.154;2022-12-17T08:42:35;2.30;;;2.10;;
7076;SDS011;3579;48.956;9.154;2022-12-17T08:45:20;2.50;;;2.00;;
7076;SDS011;3579;48.956;9.154;2022-12-17T08:48:05;2.67;;;2.00;;
7076;SDS011;3579;48.956;9.154;2022-12-17T08:50:51;2.37;;;2.10;;
7076;SDS011;3579;48.956;9.154;2022-12-17T08:53:36;2.43;;;1.90;;
7076;SDS011;3579;48.956;9.154;2022-12-17T08:56:21;2.10;;;1.90;;
7076;SDS011;3579;48.956;9.154;2022-12-17T08:59:05;2.10;;;1.83;;
7076;SDS011;3579;48.956;9.154;2022-12-17T09:01:50;2.20;;;2.00;;
7076;SDS011;3579;48.956;9.154;2022-12-17T09:04:45;2.30;;;2.10;;
7076;SDS011;3579;48.956;9.154;2022-12-17T09:07:30;2.20;;;2.00;;
7076;SDS011;3579;48.956;9.154;2022-12-17T09:10:15;2.20;;;2.00;;
7076;SDS011;3579;48.956;9.154;2022-12-17T09:13:00;2.33;;;2.13;;
7076;SDS011;3579;48.956;9.154;2022-12-17T09:15:49;2.27;;;1.97;;
7076;SDS011;3579;48.956;9.154;2022-12-17T09:18:38;2.27;;;2.00;;
7076;SDS011;3579;48.956;9.154;2022-12-17T09:21:23;2.03;;;1.73;;
7076;SDS011;3579;48.956;9.154;2022-12-17T09:24:08;2.20;;;1.90;;
7076;SDS011;3579;48.956;9.154;2022-12-17T09:26:53;2.83;;;2.07;;
7076;SDS011;3579;48.956;9.154;2022-12-17T09:29:38;2.80;;;2.00;;
7076;SDS011;3579;48.956;9.154;2022-12-17T09:32:22;2.60;;;2.17;;
7076;SDS011;3579;48.956;9.154;2022-12-17T09:35:07;2.27;;;2.00;;
7076;SDS011;3579;48.956;9.154;2022-12-17T09:37:55;3.00;;;2.33;;
7076;SDS011;3579;48.956;9.154;2022-12-17T09:40:41;2.50;;;2.30;;
7076;SDS011;3579;48.956;9.154;2022-12-17T09:43:44;4.13;;;2.47;;
7076;SDS011;3579;48.956;9.154;2022-12-17T09:49:40;3.20;;;2.47;;
7076;SDS011;3579;48.956;9.154;2022-12-17T09:52:26;2.70;;;2.23;;
7076;SDS011;3579;48.956;9.154;2022-12-17T09:55:27;2.57;;;2.30;;
7076;SDS011;3579;48.956;9.154;2022-12-17T09:58:18;3.00;;;2.43;;
7076;SDS011;3579;48.956;9.154;2022-12-17T10:01:14;2.33;;;2.13;;
7076;SDS011;3579;48.956;9.154;2022-12-17T10:04:02;3.10;;;2.50;;
7076;SDS011;3579;48.956;9.154;2022-12-17T10:06:49;2.60;;;2.40;;
7076;SDS011;3579;48.956;9.154;2022-12-17T10:09:34;2.87;;;2.50;;
7076;SDS011;3579;48.956;9.154;2022-12-17T10:12:19;3.07;;;2.10;;
7076;SDS011;3579;48.956;9.154;2022-12-17T10:15:05;3.20;;;2.60;;
7076;SDS011;3579;48.956;9.154;2022-12-17T10:17:50;2.77;;;2.40;;
7076;SDS011;3579;48.956;9.154;2022-12-17T10:20:45;3.20;;;2.60;;
7076;SDS011;3579;48.956;9.154;2022-12-17T10:23:35;2.83;;;2.37;;
7076;SDS011;3579;48.956;9.154;2022-12-17T10:26:30;2.60;;;2.40;;
7076;SDS011;3579;48.956;9.154;2022-12-17T10:29:19;2.50;;;2.30;;
7076;SDS011;3579;48.956;9.154;2022-12-17T10:32:17;2.50;;;2.30;;
7076;SDS011;3579;48.956;9.154;2022-12-17T10:38:11;3.40;;;2.43;;
7076;SDS011;3579;48.956;9.154;2022-12-17T10:41:26;2.97;;;2.30;;
7076;SDS011;3579;48.956;9.154;2022-12-17T10:44:25;3.27;;;2.47;;
7076;SDS011;3579;48.956;9.154;2022-12-17T10:47:24;3.03;;;2.50;;
7076;SDS011;3579;48.956;9.154;2022-12-17T10:50:11;2.57;;;2.10;;
7076;SDS011;3579;48.956;9.154;2022-12-17T10:52:56;3.20;;;2.57;;
7076;SDS011;3579;48.956;9.154;2022-12-17T10:55:46;3.20;;;2.30;;
7076;SDS011;3579;48.956;9.154;2022-12-17T10:58:44;2.97;;;2.37;;
7076;SDS011;3579;48.956;9.154;2022-12-17T11:01:31;2.73;;;2.50;;
7076;SDS011;3579;48.956;9.154;2022-12-17T11:04:26;3.20;;;2.37;;
7076;SDS011;3579;48.956;9.154;2022-12-17T11:10:24;3.53;;;2.20;;
7076;SDS011;3579;48.956;9.154;2022-12-17T11:13:13;2.40;;;2.20;;
7076;SDS011;3579;48.956;9.154;2022-12-17T11:16:02;2.80;;;2.47;;
7076;SDS011;3579;48.956;9.154;2022-12-17T11:18:54;2.77;;;2.47;;
7076;SDS011;3579;48.956;9.154;2022-12-17T11:21:46;2.40;;;2.20;;
7076;SDS011;3579;48.956;9.154;2022-12-17T11:24:53;2.67;;;2.43;;
7076;SDS011;3579;48.956;9.154;2022-12-17T11:27:45;3.03;;;2.40;;
7076;SDS011;3579;48.956;9.154;2022-12-17T11:30:42;2.97;;;2.60;;
7076;SDS011;3579;48.956;9.154;2022-12-17T11:33:46;2.77;;;2.40;;
7076;SDS011;3579;48.956;9.154;2022-12-17T11:36:45;2.60;;;2.30;;
7076;SDS011;3579;48.956;9.154;2022-12-17T11:39:57;3.20;;;2.80;;
7076;SDS011;3579;48.956;9.154;2022-12-17T11:42:57;3.53;;;2.70;;
7076;SDS011;3579;48.956;9.154;2022-12-17T11:45:56;2.90;;;2.60;;
7076;SDS011;3579;48.956;9.154;2022-12-17T11:48:50;2.83;;;2.40;;
7076;SDS011;3579;48.956;9.154;2022-12-17T11:51:49;3.67;;;2.67;;
7076;SDS011;3579;48.956;9.154;2022-12-17T11:55:11;3.10;;;2.50;;
7076;SDS011;3579;48.956;9.154;2022-12-17T11:58:04;3.17;;;2.70;;
7076;SDS011;3579;48.956;9.154;2022-12-17T12:04:14;2.83;;;2.37;;
7076;SDS011;3579;48.956;9.154;2022-12-17T12:07:19;3.50;;;2.70;;
7076;SDS011;3579;48.956;9.154;2022-12-17T12:10:16;4.03;;;3.07;;
7076;SDS011;3579;48.956;9.154;2022-12-17T12:13:23;3.00;;;2.57;;
7076;SDS011;3579;48.956;9.154;2022-12-17T12:16:40;3.10;;;2.57;;
7076;SDS011;3579;48.956;9.154;2022-12-17T12:19:49;3.00;;;2.70;;
7076;SDS011;3579;48.956;9.154;2022-12-17T12:22:46;3.47;;;2.57;;
7076;SDS011;3579;48.956;9.154;2022-12-17T12:32:18;3.33;;;2.60;;
7076;SDS011;3579;48.956;9.154;2022-12-17T12:35:04;2.90;;;2.60;;
7076;SDS011;3579;48.956;9.154;2022-12-17T12:37:57;3.50;;;2.90;;
7076;SDS011;3579;48.956;9.154;2022-12-17T12:40:46;2.80;;;2.37;;
7076;SDS011;3579;48.956;9.154;2022-12-17T12:43:38;3.50;;;2.77;;
7076;SDS011;3579;48.956;9.154;2022-12-17T12:46:42;3.13;;;2.73;;
7076;SDS011;3579;48.956;9.154;2022-12-17T12:49:51;2.83;;;2.60;;
7076;SDS011;3579;48.956;9.154;2022-12-17T12:52:47;3.10;;;2.80;;
7076;SDS011;3579;48.956;9.154;2022-12-17T12:55:36;2.97;;;2.67;;
7076;SDS011;3579;48.956;9.154;2022-12-17T13:01:10;3.20;;;2.87;;
7076;SDS011;3579;48.956;9.154;2022-12-17T13:03:55;3.13;;;2.83;;
7076;SDS011;3579;48.956;9.154;2022-12-17T13:17:05;3.40;;;3.10;;
7076;SDS011;3579;48.956;9.154;2022-12-17T13:19:45;3.60;;;2.90;;
7076;SDS011;3579;48.956;9.154;2022-12-17T13:22:32;3.30;;;2.83;;
7076;SDS011;3579;48.956;9.154;2022-12-17T13:25:08;3.00;;;2.70;;
7076;SDS011;3579;48.956;9.154;2022-12-17T13:27:41;3.30;;;3.00;;
7076;SDS011;3579;48.956;9.154;2022-12-17T13:32:45;2.90;;;2.60;;
7076;SDS011;3579;48.956;9.154;2022-12-17T13:43:47;3.07;;;2.77;;
7076;SDS011;3579;48.956;9.154;2022-12-17T13:46:25;3.03;;;2.73;;
7076;SDS011;3579;48.956;9.154;2022-12-17T13:49:05;3.50;;;3.13;;
7076;SDS011;3579;48.956;9.154;2022-12-17T13:52:13;3.00;;;2.50;;
7076;SDS011;3579;48.956;9.154;2022-12-17T13:54:42;3.43;;;2.87;;
7076;SDS011;3579;48.956;9.154;2022-12-17T13:57:09;3.50;;;2.47;;
7076;SDS011;3579;48.956;9.154;2022-12-17T13:59:40;3.40;;;3.10;;
7076;SDS011;3579;48.956;9.154;2022-12-17T14:02:33;3.17;;;2.87;;
7076;SDS011;3579;48.956;9.154;2022-12-17T14:05:07;2.70;;;2.50;;
7076;SDS011;3579;48.956;9.154;2022-12-17T14:07:49;3.47;;;2.70;;
7076;SDS011;3579;48.956;9.154;2022-12-17T14:10:16;3.00;;;2.70;;
7076;SDS011;3579;48.956;9.154;2022-12-17T14:12:43;2.70;;;2.50;;
7076;SDS011;3579;48.956;9.154;2022-12-17T14:15:17;2.70;;;2.50;;
7076;SDS011;3579;48.956;9.154;2022-12-17T14:17:46;2.97;;;2.53;;
7076;SDS011;3579;48.956;9.154;2022-12-17T14:20:18;3.00;;;2.70;;
7076;SDS011;3579;48.956;9.154;2022-12-17T14:22:54;3.10;;;2.70;;
7076;SDS011;3579;48.956;9.154;2022-12-17T14:25:25;3.20;;;2.80;;
7076;SDS011;3579;48.956;9.154;2022-12-17T14:27:59;2.70;;;2.47;;
7076;SDS011;3579;48.956;9.154;2022-12-17T14:30:40;3.13;;;2.83;;
7076;SDS011;3579;48.956;9.154;2022-12-17T14:35:56;2.90;;;2.60;;
7076;SDS011;3579;48.956;9.154;2022-12-17T14:38:53;2.80;;;2.50;;
7076;SDS011;3579;48.956;9.154;2022-12-17T14:41:20;2.60;;;2.40;;
7076;SDS011;3579;48.956;9.154;2022-12-17T14:44:05;3.13;;;2.60;;
7076;SDS011;3579;48.956;9.154;2022-12-17T14:46:41;2.60;;;2.40;;
7076;SDS011;3579;48.956;9.154;2022-12-17T14:49:11;3.03;;;2.40;;
7076;SDS011;3579;48.956;9.154;2022-12-17T14:51:45;2.70;;;2.50;;
7076;SDS011;3579;48.956;9.154;2022-12-17T14:56:40;3.13;;;2.50;;
7076;SDS011;3579;48.956;9.154;2022-12-17T15:01:59;2.80;;;2.50;;
7076;SDS011;3579;48.956;9.154;2022-12-17T15:04:29;3.27;;;2.70;;
7076;SDS011;3579;48.956;9.154;2022-12-17T15:06:56;3.10;;;2.80;;
7076;SDS011;3579;48.956;9.154;2022-12-17T15:09:23;4.13;;;2.70;;
7076;SDS011;3579;48.956;9.154;2022-12-17T15:11:49;3.23;;;2.93;;
7076;SDS011;3579;48.956;9.154;2022-12-17T15:14:15;3.10;;;2.80;;
7076;SDS011;3579;48.956;9.154;2022-12-17T15:16:41;3.53;;;2.70;;
7076;SDS011;3579;48.956;9.154;2022-12-17T15:19:08;2.90;;;2.60;;
7076;SDS011;3579;48.956;9.154;2022-12-17T15:21:34;2.97;;;2.67;;
7076;SDS011;3579;48.956;9.154;2022-12-17T15:24:00;3.03;;;2.60;;
7076;SDS011;3579;48.956;9.154;2022-12-17T15:26:26;2.70;;;2.40;;
7076;SDS011;3579;48.956;9.154;2022-12-17T15:28:52;3.27;;;2.57;;
7076;SDS011;3579;48.956;9.154;2022-12-17T15:31:18;2.57;;;2.37;;
7076;SDS011;3579;48.956;9.154;2022-12-17T15:33:44;2.80;;;2.43;;
7076;SDS011;3579;48.956;9.154;2022-12-17T15:36:10;3.07;;;2.50;;
7076;SDS011;3579;48.956;9.154;2022-12-17T15:38:37;2.93;;;2.63;;
7076;SDS011;3579;48.956;9.154;2022-12-17T15:41:04;3.47;;;2.70;;
7076;SDS011;3579;48.956;9.154;2022-12-17T15:43:51;2.90;;;2.50;;
7076;SDS011;3579;48.956;9.154;2022-12-17T15:46:17;2.60;;;2.40;;
7076;SDS011;3579;48.956;9.154;2022-12-17T15:48:43;2.50;;;2.30;;
7076;SDS011;3579;48.956;9.154;2022-12-17T15:51:09;3.10;;;2.37;;
7076;SDS011;3579;48.956;9.154;2022-12-17T15:53:35;2.43;;;2.23;;
7076;SDS011;3579;48.956;9.154;2022-12-17T15:56:02;2.67;;;2.47;;
7076;SDS011;3579;48.956;9.154;2022-12-17T15:58:29;2.87;;;2.40;;
7076;SDS011;3579;48.956;9.154;2022-12-17T16:00:55;2.57;;;2.30;;
7076;SDS011;3579;48.956;9.154;2022-12-17T16:03:21;4.03;;;2.30;;
7076;SDS011;3579;48.956;9.154;2022-12-17T16:05:48;2.87;;;2.67;;
7076;SDS011;3579;48.956;9.154;2022-12-17T16:08:14;2.47;;;2.27;;
7076;SDS011;3579;48.956;9.154;2022-12-17T16:10:40;2.73;;;2.10;;
7076;SDS011;3579;48.956;9.154;2022-12-17T16:13:07;2.37;;;2.17;;
7076;SDS011;3579;48.956;9.154;2022-12-17T16:15:33;2.80;;;2.50;;
7076;SDS011;3579;48.956;9.154;2022-12-17T16:17:59;2.50;;;2.30;;
7076;SDS011;3579;48.956;9.154;2022-12-17T16:20:25;2.60;;;2.40;;
7076;SDS011;3579;48.956;9.154;2022-12-17T16:22:51;2.87;;;2.57;;
7076;SDS011;3579;48.956;9.154;2022-12-17T16:25:17;2.70;;;2.50;;
7076;SDS011;3579;48.956;9.154;2022-12-17T16:27:43;3.33;;;2.83;;
7076;SDS011;3579;48.956;9.154;2022-12-17T16:30:10;2.50;;;2.30;;
7076;SDS011;3579;48.956;9.154;2022-12-17T16:32:36;2.80;;;2.50;;
7076;SDS011;3579;48.956;9.154;2022-12-17T16:35:03;2.33;;;2.13;;
7076;SDS011;3579;48.956;9.154;2022-12-17T16:37:30;2.77;;;2.37;;
7076;SDS011;3579;48.956;9.154;2022-12-17T16:39:56;3.03;;;2.50;;
7076;SDS011;3579;48.956;9.154;2022-12-17T16:42:22;2.40;;;2.20;;
7076;SDS011;3579;48.956;9.154;2022-12-17T16:44:48;2.80;;;2.47;;
7076;SDS011;3579;48.956;9.154;2022-12-17T16:47:15;2.60;;;2.23;;
7076;SDS011;3579;48.956;9.154;2022-12-17T16:49:41;2.87;;;2.57;;
7076;SDS011;3579;48.956;9.154;2022-12-17T16:52:07;2.63;;;2.20;;
7076;SDS011;3579;48.956;9.154;2022-12-17T16:54:33;3.43;;;2.67;;
7076;SDS011;3579;48.956;9.154;2022-12-17T16:56:59;2.77;;;2.57;;
7076;SDS011;3579;48.956;9.154;2022-12-17T16:59:26;2.60;;;2.40;;
7076;SDS011;3579;48.956;9.154;2022-12-17T17:01:53;2.20;;;2.00;;
7076;SDS011;3579;48.956;9.154;2022-12-17T17:04:21;2.90;;;2.60;;
7076;SDS011;3579;48.956;9.154;2022-12-17T17:06:48;2.40;;;2.20;;
7076;SDS011;3579;48.956;9.154;2022-12-17T17:09:17;2.67;;;2.40;;
7076;SDS011;3579;48.956;9.154;2022-12-17T17:11:44;2.50;;;2.30;;
7076;SDS011;3579;48.956;9.154;2022-12-17T17:14:10;2.77;;;2.53;;
7076;SDS011;3579;48.956;9.154;2022-12-17T17:16:44;2.60;;;2.40;;
7076;SDS011;3579;48.956;9.154;2022-12-17T17:19:10;2.97;;;2.40;;
7076;SDS011;3579;48.956;9.154;2022-12-17T17:21:37;2.77;;;2.47;;
7076;SDS011;3579;48.956;9.154;2022-12-17T17:24:12;2.30;;;2.10;;
7076;SDS011;3579;48.956;9.154;2022-12-17T17:26:42;2.50;;;2.30;;
7076;SDS011;3579;48.956;9.154;2022-12-17T17:29:09;2.47;;;2.27;;
7076;SDS011;3579;48.956;9.154;2022-12-17T17:31:35;3.67;;;2.33;;
7076;SDS011;3579;48.956;9.154;2022-12-17T17:34:12;2.40;;;2.20;;
7076;SDS011;3579;48.956;9.154;2022-12-17T17:36:39;2.60;;;2.40;;
7076;SDS011;3579;48.956;9.154;2022-12-17T17:39:06;2.97;;;2.47;;
7076;SDS011;3579;48.956;9.154;2022-12-17T17:41:33;2.77;;;2.43;;
7076;SDS011;3579;48.956;9.154;2022-12-17T17:44:01;2.90;;;2.60;;
7076;SDS011;3579;48.956;9.154;2022-12-17T17:46:29;2.80;;;2.50;;
7076;SDS011;3579;48.956;9.154;2022-12-17T17:48:56;2.67;;;2.40;;
7076;SDS011;3579;48.956;9.154;2022-12-17T17:51:25;2.30;;;2.10;;
7076;SDS011;3579;48.956;9.154;2022-12-17T17:53:56;2.50;;;2.30;;
7076;SDS011;3579;48.956;9.154;2022-12-17T17:56:28;2.50;;;2.30;;